sensor_id;sensor_type;location;lat;lon;timestamp;pressure;altitude;pressure_sealevel;temperature;humidity
76126;BME280;65174;48.138;21.002;2023-04-06T00:02:15;99475.25;;;0.69;53.63
76126;BME280;65174;48.138;21.002;2023-04-06T00:05:18;99471.41;;;0.87;53.52
76126;BME280;65174;48.138;21.002;2023-04-06T00:08:21;99471.50;;;0.84;53.68
76126;BME280;65174;48.138;21.002;2023-04-06T00:11:25;99471.50;;;0.84;52.72
76126;BME280;65174;48.138;21.002;2023-04-06T00:14:27;99462.94;;;0.86;52.88
76126;BME280;65174;48.138;21.002;2023-04-06T00:17:29;99453.69;;;0.85;53.15
76126;BME280;65174;48.138;21.002;2023-04-06T00:20:31;99445.31;;;0.80;53.77
76126;BME280;65174;48.138;21.002;2023-04-06T00:23:33;99462.28;;;0.79;53.34
76126;BME280;65174;48.138;21.002;2023-04-06T00:26:35;99452.94;;;0.82;52.91
76126;BME280;65174;48.138;21.002;2023-04-06T00:29:39;99454.31;;;0.93;52.63
76126;BME280;65174;48.138;21.002;2023-04-06T00:32:41;99445.56;;;1.05;51.48
76126;BME280;65174;48.138;21.002;2023-04-06T00:35:44;99440.50;;;1.03;51.75
76126;BME280;65174;48.138;21.002;2023-04-06T00:38:46;99428.84;;;0.96;51.17
76126;BME280;65174;48.138;21.002;2023-04-06T00:41:52;99433.66;;;1.07;51.29
76126;BME280;65174;48.138;21.002;2023-04-06T00:44:57;99424.88;;;1.18;50.67
76126;BME280;65174;48.138;21.002;2023-04-06T00:47:59;99438.41;;;1.19;50.83
76126;BME280;65174;48.138;21.002;2023-04-06T00:51:01;99429.22;;;1.15;50.59
76126;BME280;65174;48.138;21.002;2023-04-06T00:54:03;99444.19;;;1.24;50.24
76126;BME280;65174;48.138;21.002;2023-04-06T00:57:07;99425.88;;;1.13;50.48
76126;BME280;65174;48.138;21.002;2023-04-06T01:00:11;99423.06;;;1.22;49.93
76126;BME280;65174;48.138;21.002;2023-04-06T01:03:15;99418.38;;;1.08;50.30
76126;BME280;65174;48.138;21.002;2023-04-06T01:06:18;99414.03;;;1.12;50.54
76126;BME280;65174;48.138;21.002;2023-04-06T01:09:29;99413.25;;;1.10;50.40
76126;BME280;65174;48.138;21.002;2023-04-06T01:12:38;99420.81;;;1.11;50.30
76126;BME280;65174;48.138;21.002;2023-04-06T01:15:49;99415.72;;;1.11;49.84
76126;BME280;65174;48.138;21.002;2023-04-06T01:18:57;99400.91;;;0.96;51.13
76126;BME280;65174;48.138;21.002;2023-04-06T01:22:03;99407.16;;;1.15;49.92
76126;BME280;65174;48.138;21.002;2023-04-06T01:25:06;99405.31;;;0.90;50.62
76126;BME280;65174;48.138;21.002;2023-04-06T01:28:21;99394.03;;;1.00;50.66
76126;BME280;65174;48.138;21.002;2023-04-06T01:31:32;99405.06;;;0.99;50.52
76126;BME280;65174;48.138;21.002;2023-04-06T01:34:34;99400.78;;;1.01;51.18
76126;BME280;65174;48.138;21.002;2023-04-06T01:37:39;99395.56;;;1.05;50.76
76126;BME280;65174;48.138;21.002;2023-04-06T01:40:44;99407.53;;;1.02;50.74
76126;BME280;65174;48.138;21.002;2023-04-06T01:43:48;99387.88;;;0.77;51.19
76126;BME280;65174;48.138;21.002;2023-04-06T01:46:51;99402.50;;;1.00;50.96
76126;BME280;65174;48.138;21.002;2023-04-06T01:49:53;99401.88;;;0.91;50.71
76126;BME280;65174;48.138;21.002;2023-04-06T01:52:57;99386.47;;;0.98;51.03
76126;BME280;65174;48.138;21.002;2023-04-06T01:56:00;99385.81;;;0.90;50.92
76126;BME280;65174;48.138;21.002;2023-04-06T01:59:10;99381.56;;;0.91;50.92
76126;BME280;65174;48.138;21.002;2023-04-06T02:02:16;99377.22;;;0.96;51.43
76126;BME280;65174;48.138;21.002;2023-04-06T02:05:29;99384.44;;;0.78;51.40
76126;BME280;65174;48.138;21.002;2023-04-06T02:08:33;99371.91;;;0.72;52.04
76126;BME280;65174;48.138;21.002;2023-04-06T02:11:35;99373.44;;;0.78;51.43
76126;BME280;65174;48.138;21.002;2023-04-06T02:14:37;99365.56;;;0.56;52.21
76126;BME280;65174;48.138;21.002;2023-04-06T02:17:40;99367.16;;;0.59;52.58
76126;BME280;65174;48.138;21.002;2023-04-06T02:20:44;99346.75;;;0.63;52.34
76126;BME280;65174;48.138;21.002;2023-04-06T02:23:47;99358.22;;;0.78;51.60
76126;BME280;65174;48.138;21.002;2023-04-06T02:26:51;99354.13;;;0.72;51.57
76126;BME280;65174;48.138;21.002;2023-04-06T02:29:54;99352.31;;;0.77;51.76
76126;BME280;65174;48.138;21.002;2023-04-06T02:32:56;99350.56;;;0.79;51.82
76126;BME280;65174;48.138;21.002;2023-04-06T02:35:58;99327.50;;;0.55;52.41
76126;BME280;65174;48.138;21.002;2023-04-06T02:39:00;99350.06;;;0.65;52.67
76126;BME280;65174;48.138;21.002;2023-04-06T02:42:03;99345.53;;;0.46;54.45
76126;BME280;65174;48.138;21.002;2023-04-06T02:45:05;99340.91;;;0.60;54.63
76126;BME280;65174;48.138;21.002;2023-04-06T02:48:13;99338.72;;;0.46;54.51
76126;BME280;65174;48.138;21.002;2023-04-06T02:51:15;99340.09;;;0.59;53.86
76126;BME280;65174;48.138;21.002;2023-04-06T02:54:23;99338.38;;;0.60;54.18
76126;BME280;65174;48.138;21.002;2023-04-06T02:57:25;99339.50;;;0.50;54.78
76126;BME280;65174;48.138;21.002;2023-04-06T03:00:27;99336.19;;;0.46;55.38
76126;BME280;65174;48.138;21.002;2023-04-06T03:03:29;99333.72;;;0.43;55.76
76126;BME280;65174;48.138;21.002;2023-04-06T03:06:32;99328.81;;;0.37;56.01
76126;BME280;65174;48.138;21.002;2023-04-06T03:09:44;99320.69;;;0.25;57.27
76126;BME280;65174;48.138;21.002;2023-04-06T03:12:47;99328.66;;;0.10;58.18
76126;BME280;65174;48.138;21.002;2023-04-06T03:15:56;99322.69;;;0.12;58.26
76126;BME280;65174;48.138;21.002;2023-04-06T03:18:58;99323.63;;;0.08;58.39
76126;BME280;65174;48.138;21.002;2023-04-06T03:22:00;99323.53;;;0.11;57.80
76126;BME280;65174;48.138;21.002;2023-04-06T03:25:02;99317.59;;;0.12;58.06
76126;BME280;65174;48.138;21.002;2023-04-06T03:28:06;99320.94;;;0.14;58.10
76126;BME280;65174;48.138;21.002;2023-04-06T03:31:14;99320.03;;;0.15;58.12
76126;BME280;65174;48.138;21.002;2023-04-06T03:34:20;99320.34;;;0.03;58.41
76126;BME280;65174;48.138;21.002;2023-04-06T03:37:22;99314.22;;;0.12;58.82
76126;BME280;65174;48.138;21.002;2023-04-06T03:40:32;99319.75;;;-0.07;59.35
76126;BME280;65174;48.138;21.002;2023-04-06T03:43:34;99313.44;;;-0.26;60.17
76126;BME280;65174;48.138;21.002;2023-04-06T03:46:37;99310.81;;;-0.23;59.42
76126;BME280;65174;48.138;21.002;2023-04-06T03:49:39;99308.31;;;-0.24;59.97
76126;BME280;65174;48.138;21.002;2023-04-06T03:52:44;99310.50;;;-0.09;59.18
76126;BME280;65174;48.138;21.002;2023-04-06T03:55:46;99311.22;;;-0.04;59.32
76126;BME280;65174;48.138;21.002;2023-04-06T03:58:48;99306.38;;;-0.15;60.28
76126;BME280;65174;48.138;21.002;2023-04-06T04:01:55;99310.00;;;-0.25;61.08
76126;BME280;65174;48.138;21.002;2023-04-06T04:04:57;99309.56;;;-0.05;59.85
76126;BME280;65174;48.138;21.002;2023-04-06T04:08:00;99307.81;;;-0.03;59.27
76126;BME280;65174;48.138;21.002;2023-04-06T04:11:02;99304.94;;;0.11;58.63
76126;BME280;65174;48.138;21.002;2023-04-06T04:14:04;99303.13;;;0.16;58.62
76126;BME280;65174;48.138;21.002;2023-04-06T04:17:06;99305.63;;;0.17;58.70
76126;BME280;65174;48.138;21.002;2023-04-06T04:20:08;99306.56;;;0.13;57.97
76126;BME280;65174;48.138;21.002;2023-04-06T04:23:10;99305.34;;;0.29;58.33
76126;BME280;65174;48.138;21.002;2023-04-06T04:26:12;99309.53;;;0.30;57.98
76126;BME280;65174;48.138;21.002;2023-04-06T04:29:18;99303.34;;;0.40;57.98
76126;BME280;65174;48.138;21.002;2023-04-06T04:32:31;99303.06;;;0.51;57.84
76126;BME280;65174;48.138;21.002;2023-04-06T04:35:36;99296.34;;;0.50;58.75
76126;BME280;65174;48.138;21.002;2023-04-06T04:38:39;99302.09;;;0.56;57.95
76126;BME280;65174;48.138;21.002;2023-04-06T04:41:41;99301.03;;;0.65;57.14
76126;BME280;65174;48.138;21.002;2023-04-06T04:44:46;99302.41;;;0.44;57.77
76126;BME280;65174;48.138;21.002;2023-04-06T04:47:52;99303.00;;;0.54;58.53
76126;BME280;65174;48.138;21.002;2023-04-06T04:50:57;99310.34;;;0.64;59.17
76126;BME280;65174;48.138;21.002;2023-04-06T04:54:04;99291.78;;;0.62;58.58
76126;BME280;65174;48.138;21.002;2023-04-06T04:57:07;99299.78;;;0.79;58.42
76126;BME280;65174;48.138;21.002;2023-04-06T05:00:18;99310.44;;;0.92;57.78
76126;BME280;65174;48.138;21.002;2023-04-06T05:03:54;99299.19;;;1.01;57.47
76126;BME280;65174;48.138;21.002;2023-04-06T05:07:04;99304.81;;;1.12;57.42
76126;BME280;65174;48.138;21.002;2023-04-06T05:10:07;99301.41;;;1.13;56.87
76126;BME280;65174;48.138;21.002;2023-04-06T05:13:16;99303.66;;;1.22;58.33
76126;BME280;65174;48.138;21.002;2023-04-06T05:16:21;99306.91;;;1.27;56.62
76126;BME280;65174;48.138;21.002;2023-04-06T05:19:24;99308.63;;;1.26;57.16
76126;BME280;65174;48.138;21.002;2023-04-06T05:22:27;99307.94;;;1.20;56.74
76126;BME280;65174;48.138;21.002;2023-04-06T05:25:36;99307.09;;;1.21;58.21
76126;BME280;65174;48.138;21.002;2023-04-06T05:28:48;99307.28;;;1.13;57.22
76126;BME280;65174;48.138;21.002;2023-04-06T05:31:51;99302.69;;;0.97;55.51
76126;BME280;65174;48.138;21.002;2023-04-06T05:34:54;99313.38;;;1.08;56.71
76126;BME280;65174;48.138;21.002;2023-04-06T05:37:56;99303.34;;;1.03;55.73
76126;BME280;65174;48.138;21.002;2023-04-06T05:41:01;99311.38;;;1.19;55.44
76126;BME280;65174;48.138;21.002;2023-04-06T05:45:08;99311.44;;;0.87;56.57
76126;BME280;65174;48.138;21.002;2023-04-06T05:54:49;99311.66;;;0.79;62.18
76126;BME280;65174;48.138;21.002;2023-04-06T06:04:00;99305.91;;;0.72;66.17
76126;BME280;65174;48.138;21.002;2023-04-06T06:07:05;99323.47;;;0.13;69.33
76126;BME280;65174;48.138;21.002;2023-04-06T06:10:15;99316.56;;;-0.16;71.76
76126;BME280;65174;48.138;21.002;2023-04-06T06:13:21;99312.84;;;0.00;72.28
76126;BME280;65174;48.138;21.002;2023-04-06T06:16:24;99321.34;;;-0.04;73.36
76126;BME280;65174;48.138;21.002;2023-04-06T06:19:27;99319.91;;;-0.14;74.76
76126;BME280;65174;48.138;21.002;2023-04-06T06:22:32;99320.97;;;-0.24;75.55
76126;BME280;65174;48.138;21.002;2023-04-06T06:25:34;99321.97;;;-0.30;76.12
76126;BME280;65174;48.138;21.002;2023-04-06T06:28:37;99321.16;;;-0.32;77.40
76126;BME280;65174;48.138;21.002;2023-04-06T06:31:39;99330.63;;;-0.40;78.00
76126;BME280;65174;48.138;21.002;2023-04-06T06:34:42;99329.19;;;-0.13;78.55
76126;BME280;65174;48.138;21.002;2023-04-06T06:37:45;99332.19;;;-0.34;80.03
76126;BME280;65174;48.138;21.002;2023-04-06T06:40:50;99335.66;;;-0.38;80.91
76126;BME280;65174;48.138;21.002;2023-04-06T06:43:53;99335.34;;;-0.25;80.91
76126;BME280;65174;48.138;21.002;2023-04-06T06:46:55;99333.50;;;-0.55;81.99
76126;BME280;65174;48.138;21.002;2023-04-06T06:49:57;99329.22;;;-0.53;82.61
76126;BME280;65174;48.138;21.002;2023-04-06T06:52:59;99330.75;;;-0.44;82.47
76126;BME280;65174;48.138;21.002;2023-04-06T06:56:02;99338.78;;;-0.27;81.64
76126;BME280;65174;48.138;21.002;2023-04-06T06:59:05;99330.69;;;-0.43;82.59
76126;BME280;65174;48.138;21.002;2023-04-06T07:02:10;99330.41;;;-0.31;82.04
76126;BME280;65174;48.138;21.002;2023-04-06T07:05:12;99326.00;;;-0.21;81.54
76126;BME280;65174;48.138;21.002;2023-04-06T07:08:29;99328.34;;;-0.50;83.12
76126;BME280;65174;48.138;21.002;2023-04-06T07:11:31;99328.66;;;-0.27;82.48
76126;BME280;65174;48.138;21.002;2023-04-06T07:14:33;99322.19;;;-0.40;83.17
76126;BME280;65174;48.138;21.002;2023-04-06T07:17:35;99325.19;;;-0.23;83.32
76126;BME280;65174;48.138;21.002;2023-04-06T07:20:38;99325.50;;;0.00;82.25
76126;BME280;65174;48.138;21.002;2023-04-06T07:23:40;99324.97;;;-0.14;82.91
76126;BME280;65174;48.138;21.002;2023-04-06T07:26:42;99327.19;;;-0.01;81.66
76126;BME280;65174;48.138;21.002;2023-04-06T07:29:44;99315.97;;;-0.27;82.96
76126;BME280;65174;48.138;21.002;2023-04-06T07:32:46;99315.72;;;-0.15;83.71
76126;BME280;65174;48.138;21.002;2023-04-06T07:35:49;99313.28;;;0.16;82.11
76126;BME280;65174;48.138;21.002;2023-04-06T07:38:51;99313.19;;;-0.17;83.93
76126;BME280;65174;48.138;21.002;2023-04-06T07:41:53;99310.75;;;0.16;82.01
76126;BME280;65174;48.138;21.002;2023-04-06T07:44:56;99316.41;;;0.25;82.42
76126;BME280;65174;48.138;21.002;2023-04-06T07:47:58;99317.41;;;0.20;81.46
76126;BME280;65174;48.138;21.002;2023-04-06T07:51:03;99309.25;;;0.41;82.42
76126;BME280;65174;48.138;21.002;2023-04-06T07:54:09;99304.09;;;0.12;82.96
76126;BME280;65174;48.138;21.002;2023-04-06T07:57:11;99306.72;;;0.41;81.69
76126;BME280;65174;48.138;21.002;2023-04-06T08:00:13;99306.56;;;0.47;81.51
76126;BME280;65174;48.138;21.002;2023-04-06T08:03:15;99307.59;;;0.06;82.50
76126;BME280;65174;48.138;21.002;2023-04-06T08:06:18;99308.59;;;0.34;82.93
76126;BME280;65174;48.138;21.002;2023-04-06T08:09:20;99299.31;;;0.33;83.67
76126;BME280;65174;48.138;21.002;2023-04-06T08:12:22;99306.75;;;0.71;82.37
76126;BME280;65174;48.138;21.002;2023-04-06T08:15:24;99308.34;;;0.43;82.44
76126;BME280;65174;48.138;21.002;2023-04-06T08:18:27;99306.63;;;0.77;81.53
76126;BME280;65174;48.138;21.002;2023-04-06T08:21:29;99302.28;;;0.81;81.18
76126;BME280;65174;48.138;21.002;2023-04-06T08:24:31;99302.13;;;0.21;83.44
76126;BME280;65174;48.138;21.002;2023-04-06T08:27:34;99302.09;;;0.56;82.03
76126;BME280;65174;48.138;21.002;2023-04-06T08:30:36;99299.66;;;0.84;82.47
76126;BME280;65174;48.138;21.002;2023-04-06T08:33:40;99299.34;;;0.95;82.30
76126;BME280;65174;48.138;21.002;2023-04-06T08:36:42;99302.50;;;1.03;80.76
76126;BME280;65174;48.138;21.002;2023-04-06T08:39:44;99291.78;;;0.62;81.14
76126;BME280;65174;48.138;21.002;2023-04-06T08:42:52;99299.41;;;0.93;82.67
76126;BME280;65174;48.138;21.002;2023-04-06T08:45:55;99289.97;;;0.97;81.06
76126;BME280;65174;48.138;21.002;2023-04-06T08:48:59;99291.84;;;0.92;82.38
76126;BME280;65174;48.138;21.002;2023-04-06T08:52:02;99291.34;;;0.79;83.11
76126;BME280;65174;48.138;21.002;2023-04-06T08:55:04;99289.19;;;0.64;83.55
76126;BME280;65174;48.138;21.002;2023-04-06T08:58:07;99289.91;;;1.00;82.95
76126;BME280;65174;48.138;21.002;2023-04-06T09:01:11;99288.22;;;1.00;83.30
76126;BME280;65174;48.138;21.002;2023-04-06T09:04:15;99288.16;;;1.02;81.00
76126;BME280;65174;48.138;21.002;2023-04-06T09:07:18;99285.97;;;0.90;81.43
76126;BME280;65174;48.138;21.002;2023-04-06T09:10:21;99284.72;;;1.03;82.81
76126;BME280;65174;48.138;21.002;2023-04-06T09:13:24;99273.06;;;0.66;82.41
76126;BME280;65174;48.138;21.002;2023-04-06T09:16:27;99280.78;;;0.94;82.52
76126;BME280;65174;48.138;21.002;2023-04-06T09:19:29;99273.34;;;0.87;82.28
76126;BME280;65174;48.138;21.002;2023-04-06T09:22:38;99280.91;;;0.88;81.90
76126;BME280;65174;48.138;21.002;2023-04-06T09:25:40;99277.63;;;0.85;81.77
76126;BME280;65174;48.138;21.002;2023-04-06T09:28:52;99273.47;;;0.82;83.59
76126;BME280;65174;48.138;21.002;2023-04-06T09:32:05;99280.16;;;0.85;82.59
76126;BME280;65174;48.138;21.002;2023-04-06T09:35:08;99270.34;;;0.72;83.18
76126;BME280;65174;48.138;21.002;2023-04-06T09:38:11;99274.59;;;0.72;83.12
76126;BME280;65174;48.138;21.002;2023-04-06T09:41:24;99276.16;;;0.76;83.20
76126;BME280;65174;48.138;21.002;2023-04-06T09:44:26;99279.94;;;0.94;83.35
76126;BME280;65174;48.138;21.002;2023-04-06T09:47:30;99263.00;;;0.93;82.53
76126;BME280;65174;48.138;21.002;2023-04-06T09:50:33;99262.41;;;1.14;81.92
76126;BME280;65174;48.138;21.002;2023-04-06T09:53:38;99262.97;;;1.23;82.58
76126;BME280;65174;48.138;21.002;2023-04-06T09:56:46;99262.66;;;1.34;81.12
76126;BME280;65174;48.138;21.002;2023-04-06T10:00:05;99268.28;;;1.16;80.99
76126;BME280;65174;48.138;21.002;2023-04-06T10:03:43;99262.03;;;1.26;82.78
76126;BME280;65174;48.138;21.002;2023-04-06T10:06:47;99259.38;;;1.30;81.61
76126;BME280;65174;48.138;21.002;2023-04-06T10:09:54;99261.09;;;1.30;81.48
76126;BME280;65174;48.138;21.002;2023-04-06T10:12:58;99259.03;;;1.42;81.47
76126;BME280;65174;48.138;21.002;2023-04-06T10:16:00;99265.56;;;1.49;81.63
76126;BME280;65174;48.138;21.002;2023-04-06T10:22:55;99254.88;;;1.66;80.93
76126;BME280;65174;48.138;21.002;2023-04-06T10:26:00;99246.13;;;1.75;81.09
76126;BME280;65174;48.138;21.002;2023-04-06T10:29:03;99249.78;;;1.68;80.59
76126;BME280;65174;48.138;21.002;2023-04-06T10:32:05;99242.38;;;1.60;81.13
76126;BME280;65174;48.138;21.002;2023-04-06T10:35:09;99240.13;;;1.77;80.62
76126;BME280;65174;48.138;21.002;2023-04-06T10:38:12;99240.31;;;1.71;81.19
76126;BME280;65174;48.138;21.002;2023-04-06T10:41:16;99243.59;;;1.48;80.57
76126;BME280;65174;48.138;21.002;2023-04-06T10:44:23;99239.50;;;1.43;81.56
76126;BME280;65174;48.138;21.002;2023-04-06T10:47:26;99239.50;;;1.43;81.92
76126;BME280;65174;48.138;21.002;2023-04-06T10:50:29;99234.47;;;1.69;80.97
76126;BME280;65174;48.138;21.002;2023-04-06T10:53:33;99229.50;;;1.65;81.21
76126;BME280;65174;48.138;21.002;2023-04-06T10:56:36;99238.84;;;1.64;81.82
76126;BME280;65174;48.138;21.002;2023-04-06T10:59:42;99233.84;;;1.87;81.52
76126;BME280;65174;48.138;21.002;2023-04-06T11:02:45;99238.28;;;1.82;81.17
76126;BME280;65174;48.138;21.002;2023-04-06T11:05:48;99236.19;;;1.95;81.04
76126;BME280;65174;48.138;21.002;2023-04-06T11:08:51;99228.44;;;1.98;81.31
76126;BME280;65174;48.138;21.002;2023-04-06T11:11:54;99227.22;;;1.83;81.33
76126;BME280;65174;48.138;21.002;2023-04-06T11:14:59;99232.38;;;1.80;82.56
76126;BME280;65174;48.138;21.002;2023-04-06T11:18:07;99227.09;;;1.60;82.13
76126;BME280;65174;48.138;21.002;2023-04-06T11:21:13;99228.34;;;1.75;81.94
76126;BME280;65174;48.138;21.002;2023-04-06T11:24:23;99221.00;;;1.92;81.37
76126;BME280;65174;48.138;21.002;2023-04-06T11:27:25;99220.41;;;1.84;81.94
76126;BME280;65174;48.138;21.002;2023-04-06T11:30:32;99227.16;;;1.85;82.34
76126;BME280;65174;48.138;21.002;2023-04-06T11:33:38;99217.44;;;1.71;81.26
76126;BME280;65174;48.138;21.002;2023-04-06T11:36:41;99219.28;;;1.66;81.55
76126;BME280;65174;48.138;21.002;2023-04-06T11:39:52;99222.06;;;1.85;81.68
76126;BME280;65174;48.138;21.002;2023-04-06T11:42:56;99219.88;;;1.74;82.18
76126;BME280;65174;48.138;21.002;2023-04-06T11:46:05;99216.91;;;1.88;81.38
76126;BME280;65174;48.138;21.002;2023-04-06T11:49:08;99213.78;;;1.80;81.31
76126;BME280;65174;48.138;21.002;2023-04-06T11:52:19;99212.94;;;1.79;82.08
76126;BME280;65174;48.138;21.002;2023-04-06T11:55:21;99212.94;;;1.79;81.64
76126;BME280;65174;48.138;21.002;2023-04-06T11:58:23;99213.97;;;1.74;83.28
76126;BME280;65174;48.138;21.002;2023-04-06T12:01:26;99220.06;;;1.68;83.12
76126;BME280;65174;48.138;21.002;2023-04-06T12:04:28;99213.56;;;1.33;83.64
76126;BME280;65174;48.138;21.002;2023-04-06T12:07:31;99214.34;;;1.61;83.14
76126;BME280;65174;48.138;21.002;2023-04-06T12:10:34;99219.00;;;1.75;83.52
76126;BME280;65174;48.138;21.002;2023-04-06T12:13:36;99208.56;;;1.83;81.86
76126;BME280;65174;48.138;21.002;2023-04-06T12:16:54;99210.56;;;1.99;81.82
76126;BME280;65174;48.138;21.002;2023-04-06T12:19:56;99205.44;;;1.75;83.18
76126;BME280;65174;48.138;21.002;2023-04-06T12:23:06;99198.41;;;1.83;83.21
76126;BME280;65174;48.138;21.002;2023-04-06T12:26:08;99206.16;;;1.78;83.01
76126;BME280;65174;48.138;21.002;2023-04-06T12:29:14;99197.75;;;1.78;82.68
76126;BME280;65174;48.138;21.002;2023-04-06T12:32:16;99205.22;;;1.56;84.00
76126;BME280;65174;48.138;21.002;2023-04-06T12:35:18;99204.09;;;1.65;84.09
76126;BME280;65174;48.138;21.002;2023-04-06T12:38:20;99202.59;;;1.59;84.46
76126;BME280;65174;48.138;21.002;2023-04-06T12:41:23;99208.44;;;1.61;84.87
76126;BME280;65174;48.138;21.002;2023-04-06T12:44:26;99194.13;;;1.58;85.10
76126;BME280;65174;48.138;21.002;2023-04-06T12:47:28;99197.88;;;1.73;84.43
76126;BME280;65174;48.138;21.002;2023-04-06T12:50:30;99202.72;;;1.54;85.35
76126;BME280;65174;48.138;21.002;2023-04-06T12:53:33;99202.03;;;1.49;84.49
76126;BME280;65174;48.138;21.002;2023-04-06T12:56:36;99196.53;;;1.63;84.30
76126;BME280;65174;48.138;21.002;2023-04-06T12:59:38;99194.63;;;1.68;84.41
76126;BME280;65174;48.138;21.002;2023-04-06T13:02:40;99184.94;;;1.53;85.00
76126;BME280;65174;48.138;21.002;2023-04-06T13:05:50;99194.91;;;1.60;83.92
76126;BME280;65174;48.138;21.002;2023-04-06T13:08:52;99197.19;;;1.68;84.30
76126;BME280;65174;48.138;21.002;2023-04-06T13:11:54;99204.75;;;1.43;85.15
76126;BME280;65174;48.138;21.002;2023-04-06T13:14:57;99199.41;;;1.52;85.18
76126;BME280;65174;48.138;21.002;2023-04-06T13:17:59;99194.41;;;1.22;86.80
76126;BME280;65174;48.138;21.002;2023-04-06T13:21:01;99187.22;;;1.36;86.71
76126;BME280;65174;48.138;21.002;2023-04-06T13:24:03;99187.56;;;1.24;86.80
76126;BME280;65174;48.138;21.002;2023-04-06T13:27:06;99187.31;;;1.33;86.35
76126;BME280;65174;48.138;21.002;2023-04-06T13:30:09;99180.38;;;1.38;86.58
76126;BME280;65174;48.138;21.002;2023-04-06T13:33:13;99187.81;;;1.44;87.08
76126;BME280;65174;48.138;21.002;2023-04-06T13:36:15;99182.16;;;1.34;87.13
76126;BME280;65174;48.138;21.002;2023-04-06T13:39:19;99181.50;;;1.82;85.68
76126;BME280;65174;48.138;21.002;2023-04-06T13:42:21;99174.16;;;1.73;85.34
76126;BME280;65174;48.138;21.002;2023-04-06T13:45:23;99175.66;;;1.78;85.68
76126;BME280;65174;48.138;21.002;2023-04-06T13:48:25;99174.63;;;1.59;84.71
76126;BME280;65174;48.138;21.002;2023-04-06T13:51:27;99165.88;;;1.68;86.05
76126;BME280;65174;48.138;21.002;2023-04-06T13:54:30;99163.56;;;1.85;86.06
76126;BME280;65174;48.138;21.002;2023-04-06T13:57:32;99158.06;;;1.72;86.03
76126;BME280;65174;48.138;21.002;2023-04-06T14:00:34;99149.19;;;1.59;85.82
76126;BME280;65174;48.138;21.002;2023-04-06T14:03:37;99170.75;;;1.47;86.09
76126;BME280;65174;48.138;21.002;2023-04-06T14:06:39;99158.59;;;1.57;86.17
76126;BME280;65174;48.138;21.002;2023-04-06T14:09:41;99163.63;;;1.58;85.71
76126;BME280;65174;48.138;21.002;2023-04-06T14:12:43;99162.91;;;1.55;85.87
76126;BME280;65174;48.138;21.002;2023-04-06T14:15:46;99164.47;;;1.57;85.74
76126;BME280;65174;48.138;21.002;2023-04-06T14:18:48;99166.78;;;1.65;85.62
76126;BME280;65174;48.138;21.002;2023-04-06T14:21:50;99160.03;;;1.64;85.19
76126;BME280;65174;48.138;21.002;2023-04-06T14:24:52;99162.34;;;1.72;85.69
76126;BME280;65174;48.138;21.002;2023-04-06T14:27:54;99159.81;;;1.70;85.67
76126;BME280;65174;48.138;21.002;2023-04-06T14:30:56;99161.50;;;1.71;84.84
76126;BME280;65174;48.138;21.002;2023-04-06T14:34:01;99162.16;;;1.76;85.26
76126;BME280;65174;48.138;21.002;2023-04-06T14:37:04;99159.09;;;1.67;84.93
76126;BME280;65174;48.138;21.002;2023-04-06T14:40:07;99153.97;;;1.68;85.03
76126;BME280;65174;48.138;21.002;2023-04-06T14:43:09;99160.81;;;1.66;85.51
76126;BME280;65174;48.138;21.002;2023-04-06T14:46:11;99161.78;;;1.62;84.93
76126;BME280;65174;48.138;21.002;2023-04-06T14:49:13;99157.19;;;1.73;85.09
76126;BME280;65174;48.138;21.002;2023-04-06T14:52:16;99152.25;;;1.69;84.58
76126;BME280;65174;48.138;21.002;2023-04-06T14:55:18;99154.44;;;1.79;84.69
76126;BME280;65174;48.138;21.002;2023-04-06T14:58:21;99150.91;;;1.83;84.44
76126;BME280;65174;48.138;21.002;2023-04-06T15:01:23;99153.38;;;1.86;83.33
76126;BME280;65174;48.138;21.002;2023-04-06T15:04:25;99149.00;;;1.90;83.72
76126;BME280;65174;48.138;21.002;2023-04-06T15:07:27;99155.06;;;1.86;83.12
76126;BME280;65174;48.138;21.002;2023-04-06T15:10:33;99150.00;;;1.86;83.21
76126;BME280;65174;48.138;21.002;2023-04-06T15:13:35;99154.25;;;1.85;83.40
76126;BME280;65174;48.138;21.002;2023-04-06T15:16:36;99157.34;;;1.93;83.41
76126;BME280;65174;48.138;21.002;2023-04-06T15:19:38;99165.41;;;1.81;83.26
76126;BME280;65174;48.138;21.002;2023-04-06T15:22:40;99169.66;;;1.81;83.96
76126;BME280;65174;48.138;21.002;2023-04-06T15:25:42;99166.28;;;1.54;84.84
76126;BME280;65174;48.138;21.002;2023-04-06T15:28:44;99170.50;;;1.55;84.67
76126;BME280;65174;48.138;21.002;2023-04-06T15:31:46;99161.13;;;1.57;85.30
76126;BME280;65174;48.138;21.002;2023-04-06T15:34:48;99161.72;;;1.63;85.32
76126;BME280;65174;48.138;21.002;2023-04-06T15:37:50;99166.13;;;1.32;86.44
76126;BME280;65174;48.138;21.002;2023-04-06T15:40:52;99167.03;;;1.57;86.20
76126;BME280;65174;48.138;21.002;2023-04-06T15:43:55;99169.34;;;1.63;85.21
76126;BME280;65174;48.138;21.002;2023-04-06T15:46:57;99165.19;;;1.63;85.93
76126;BME280;65174;48.138;21.002;2023-04-06T15:49:59;99168.56;;;1.63;85.42
76126;BME280;65174;48.138;21.002;2023-04-06T15:53:01;99162.78;;;1.58;85.79
76126;BME280;65174;48.138;21.002;2023-04-06T15:56:05;99165.06;;;1.66;85.91
76126;BME280;65174;48.138;21.002;2023-04-06T15:59:09;99168.41;;;1.68;85.81
76126;BME280;65174;48.138;21.002;2023-04-06T16:02:11;99163.50;;;1.61;85.13
76126;BME280;65174;48.138;21.002;2023-04-06T16:05:13;99166.63;;;1.43;85.97
76126;BME280;65174;48.138;21.002;2023-04-06T16:08:15;99164.63;;;1.53;86.10
76126;BME280;65174;48.138;21.002;2023-04-06T16:11:18;99164.47;;;1.57;85.23
76126;BME280;65174;48.138;21.002;2023-04-06T16:14:20;99165.19;;;1.63;85.07
76126;BME280;65174;48.138;21.002;2023-04-06T16:17:22;99167.94;;;1.81;85.21
76126;BME280;65174;48.138;21.002;2023-04-06T16:20:24;99158.34;;;1.89;85.53
76126;BME280;65174;48.138;21.002;2023-04-06T16:23:27;99163.22;;;1.95;84.63
76126;BME280;65174;48.138;21.002;2023-04-06T16:26:29;99157.91;;;2.01;84.69
76126;BME280;65174;48.138;21.002;2023-04-06T16:29:34;99151.84;;;2.05;84.26
76126;BME280;65174;48.138;21.002;2023-04-06T16:32:36;99150.88;;;2.09;83.69